sensor_id;sensor_type;location;lat;lon;timestamp;temperature;humidity
6956;DHT22;50345;51.136;16.886;2022-07-23T00:00:59;20.80;99.90
6956;DHT22;50345;51.136;16.886;2022-07-23T00:03:25;20.70;99.90
6956;DHT22;50345;51.136;16.886;2022-07-23T00:05:51;20.60;99.90
6956;DHT22;50345;51.136;16.886;2022-07-23T00:08:17;20.60;99.90
6956;DHT22;50345;51.136;16.886;2022-07-23T00:10:43;20.60;99.90
6956;DHT22;50345;51.136;16.886;2022-07-23T00:13:08;20.60;99.90
6956;DHT22;50345;51.136;16.886;2022-07-23T00:15:34;20.50;99.90
6956;DHT22;50345;51.136;16.886;2022-07-23T00:18:00;20.50;99.90
6956;DHT22;50345;51.136;16.886;2022-07-23T00:20:25;20.50;99.90
6956;DHT22;50345;51.136;16.886;2022-07-23T00:22:53;20.50;99.90
6956;DHT22;50345;51.136;16.886;2022-07-23T00:25:19;20.40;99.90
6956;DHT22;50345;51.136;16.886;2022-07-23T00:27:45;20.40;99.90
6956;DHT22;50345;51.136;16.886;2022-07-23T00:30:11;20.30;99.90
6956;DHT22;50345;51.136;16.886;2022-07-23T00:32:54;20.30;99.90
6956;DHT22;50345;51.136;16.886;2022-07-23T00:35:21;20.30;99.90
6956;DHT22;50345;51.136;16.886;2022-07-23T00:40:13;20.30;99.90
6956;DHT22;50345;51.136;16.886;2022-07-23T00:42:39;20.20;99.90
6956;DHT22;50345;51.136;16.886;2022-07-23T00:45:05;20.20;99.90
6956;DHT22;50345;51.136;16.886;2022-07-23T00:47:31;20.10;99.90
6956;DHT22;50345;51.136;16.886;2022-07-23T00:49:57;20.20;99.90
6956;DHT22;50345;51.136;16.886;2022-07-23T00:52:22;20.10;99.90
6956;DHT22;50345;51.136;16.886;2022-07-23T00:54:48;20.10;99.90
6956;DHT22;50345;51.136;16.886;2022-07-23T00:57:14;20.20;99.90
6956;DHT22;50345;51.136;16.886;2022-07-23T00:59:40;20.10;99.90
6956;DHT22;50345;51.136;16.886;2022-07-23T01:02:06;20.10;99.90
6956;DHT22;50345;51.136;16.886;2022-07-23T01:04:31;20.10;99.90
6956;DHT22;50345;51.136;16.886;2022-07-23T01:06:57;20.00;99.90
6956;DHT22;50345;51.136;16.886;2022-07-23T01:09:23;20.00;99.90
6956;DHT22;50345;51.136;16.886;2022-07-23T01:11:50;20.00;99.90
6956;DHT22;50345;51.136;16.886;2022-07-23T01:16:46;20.00;99.90
6956;DHT22;50345;51.136;16.886;2022-07-23T01:19:12;19.90;99.90
6956;DHT22;50345;51.136;16.886;2022-07-23T01:21:43;19.90;99.90
6956;DHT22;50345;51.136;16.886;2022-07-23T01:24:10;19.90;99.90
6956;DHT22;50345;51.136;16.886;2022-07-23T01:26:36;19.80;99.90
6956;DHT22;50345;51.136;16.886;2022-07-23T01:29:03;19.80;99.90
6956;DHT22;50345;51.136;16.886;2022-07-23T01:31:28;19.80;99.90
6956;DHT22;50345;51.136;16.886;2022-07-23T01:33:54;19.80;99.90
6956;DHT22;50345;51.136;16.886;2022-07-23T01:36:20;19.70;99.90
6956;DHT22;50345;51.136;16.886;2022-07-23T01:38:45;19.70;99.90
6956;DHT22;50345;51.136;16.886;2022-07-23T01:41:11;19.70;99.90
6956;DHT22;50345;51.136;16.886;2022-07-23T01:43:37;19.70;99.90
6956;DHT22;50345;51.136;16.886;2022-07-23T01:46:02;19.60;99.90
6956;DHT22;50345;51.136;16.886;2022-07-23T01:48:28;19.60;99.90
6956;DHT22;50345;51.136;16.886;2022-07-23T01:50:53;19.60;99.90
6956;DHT22;50345;51.136;16.886;2022-07-23T01:53:19;19.50;99.90
6956;DHT22;50345;51.136;16.886;2022-07-23T01:55:45;19.50;99.90
6956;DHT22;50345;51.136;16.886;2022-07-23T01:58:10;19.50;99.90
6956;DHT22;50345;51.136;16.886;2022-07-23T02:00:36;19.50;99.90
6956;DHT22;50345;51.136;16.886;2022-07-23T02:03:01;19.40;99.90
6956;DHT22;50345;51.136;16.886;2022-07-23T02:05:28;19.40;99.90
6956;DHT22;50345;51.136;16.886;2022-07-23T02:08:00;19.40;99.90
6956;DHT22;50345;51.136;16.886;2022-07-23T02:10:27;19.40;99.90
6956;DHT22;50345;51.136;16.886;2022-07-23T02:12:53;19.30;99.90
6956;DHT22;50345;51.136;16.886;2022-07-23T02:15:18;19.30;99.90
6956;DHT22;50345;51.136;16.886;2022-07-23T02:17:44;19.30;99.90
6956;DHT22;50345;51.136;16.886;2022-07-23T02:20:11;19.40;99.90
6956;DHT22;50345;51.136;16.886;2022-07-23T02:22:37;19.30;99.90
6956;DHT22;50345;51.136;16.886;2022-07-23T02:25:04;19.30;99.90
6956;DHT22;50345;51.136;16.886;2022-07-23T02:29:56;19.30;99.90
6956;DHT22;50345;51.136;16.886;2022-07-23T02:32:23;19.30;99.90
6956;DHT22;50345;51.136;16.886;2022-07-23T02:34:48;19.30;99.90
6956;DHT22;50345;51.136;16.886;2022-07-23T02:37:14;19.30;99.90
6956;DHT22;50345;51.136;16.886;2022-07-23T02:39:40;19.30;99.90
6956;DHT22;50345;51.136;16.886;2022-07-23T02:42:05;19.30;99.90
6956;DHT22;50345;51.136;16.886;2022-07-23T02:44:31;19.30;99.90
6956;DHT22;50345;51.136;16.886;2022-07-23T02:46:57;19.20;99.90
6956;DHT22;50345;51.136;16.886;2022-07-23T02:49:22;19.20;99.90
6956;DHT22;50345;51.136;16.886;2022-07-23T02:51:48;19.20;99.90
6956;DHT22;50345;51.136;16.886;2022-07-23T02:54:14;19.10;99.90
6956;DHT22;50345;51.136;16.886;2022-07-23T02:56:39;19.10;99.90
6956;DHT22;50345;51.136;16.886;2022-07-23T02:59:05;19.10;99.90
6956;DHT22;50345;51.136;16.886;2022-07-23T03:01:30;19.10;99.90
6956;DHT22;50345;51.136;16.886;2022-07-23T03:03:56;19.10;99.90
6956;DHT22;50345;51.136;16.886;2022-07-23T03:06:21;19.10;99.90
6956;DHT22;50345;51.136;16.886;2022-07-23T03:08:47;19.10;99.90
6956;DHT22;50345;51.136;16.886;2022-07-23T03:11:13;19.10;99.90
6956;DHT22;50345;51.136;16.886;2022-07-23T03:13:39;19.10;99.90
6956;DHT22;50345;51.136;16.886;2022-07-23T03:16:06;19.10;99.90
6956;DHT22;50345;51.136;16.886;2022-07-23T03:18:31;19.10;99.90
6956;DHT22;50345;51.136;16.886;2022-07-23T03:20:57;19.10;99.90
6956;DHT22;50345;51.136;16.886;2022-07-23T03:23:22;19.10;99.90
6956;DHT22;50345;51.136;16.886;2022-07-23T03:25:48;19.00;99.90
6956;DHT22;50345;51.136;16.886;2022-07-23T03:28:18;19.00;99.90
6956;DHT22;50345;51.136;16.886;2022-07-23T03:30:46;19.00;99.90
6956;DHT22;50345;51.136;16.886;2022-07-23T03:33:16;19.00;99.90
6956;DHT22;50345;51.136;16.886;2022-07-23T03:35:46;19.00;99.90
6956;DHT22;50345;51.136;16.886;2022-07-23T03:38:12;19.00;99.90
6956;DHT22;50345;51.136;16.886;2022-07-23T03:40:38;19.00;99.90
6956;DHT22;50345;51.136;16.886;2022-07-23T03:43:04;19.00;99.90
6956;DHT22;50345;51.136;16.886;2022-07-23T03:45:31;19.10;99.90
6956;DHT22;50345;51.136;16.886;2022-07-23T03:47:57;19.10;99.90
6956;DHT22;50345;51.136;16.886;2022-07-23T03:50:23;19.20;99.90
6956;DHT22;50345;51.136;16.886;2022-07-23T03:52:49;19.20;99.90
6956;DHT22;50345;51.136;16.886;2022-07-23T03:55:15;19.30;99.90
6956;DHT22;50345;51.136;16.886;2022-07-23T03:57:40;19.40;99.90
6956;DHT22;50345;51.136;16.886;2022-07-23T04:00:07;19.50;99.90
6956;DHT22;50345;51.136;16.886;2022-07-23T04:02:35;19.50;99.90
6956;DHT22;50345;51.136;16.886;2022-07-23T04:05:00;19.60;99.90
6956;DHT22;50345;51.136;16.886;2022-07-23T04:07:26;19.70;99.90
6956;DHT22;50345;51.136;16.886;2022-07-23T04:09:52;19.70;99.90
6956;DHT22;50345;51.136;16.886;2022-07-23T04:12:18;19.80;99.90
6956;DHT22;50345;51.136;16.886;2022-07-23T04:14:43;19.80;99.90
6956;DHT22;50345;51.136;16.886;2022-07-23T04:17:09;19.80;99.90
6956;DHT22;50345;51.136;16.886;2022-07-23T04:19:34;19.90;99.90
6956;DHT22;50345;51.136;16.886;2022-07-23T04:22:07;19.90;99.90
6956;DHT22;50345;51.136;16.886;2022-07-23T04:24:33;20.00;99.90
6956;DHT22;50345;51.136;16.886;2022-07-23T04:26:59;20.00;99.90
6956;DHT22;50345;51.136;16.886;2022-07-23T04:29:25;20.10;99.90
6956;DHT22;50345;51.136;16.886;2022-07-23T04:31:51;20.20;99.90
6956;DHT22;50345;51.136;16.886;2022-07-23T04:34:16;20.30;99.90
6956;DHT22;50345;51.136;16.886;2022-07-23T04:36:42;20.40;99.90
6956;DHT22;50345;51.136;16.886;2022-07-23T04:39:08;20.50;99.90
6956;DHT22;50345;51.136;16.886;2022-07-23T04:41:35;20.60;99.90
6956;DHT22;50345;51.136;16.886;2022-07-23T04:44:01;20.60;99.90
6956;DHT22;50345;51.136;16.886;2022-07-23T04:46:26;20.80;99.90
6956;DHT22;50345;51.136;16.886;2022-07-23T04:51:19;21.00;99.90
6956;DHT22;50345;51.136;16.886;2022-07-23T04:53:44;21.10;99.90
6956;DHT22;50345;51.136;16.886;2022-07-23T04:56:10;21.20;99.90
6956;DHT22;50345;51.136;16.886;2022-07-23T04:58:36;21.30;99.90
6956;DHT22;50345;51.136;16.886;2022-07-23T05:01:01;21.50;99.90
6956;DHT22;50345;51.136;16.886;2022-07-23T05:03:27;21.60;99.90
6956;DHT22;50345;51.136;16.886;2022-07-23T05:05:53;21.70;99.90
6956;DHT22;50345;51.136;16.886;2022-07-23T05:08:18;21.80;99.90
6956;DHT22;50345;51.136;16.886;2022-07-23T05:13:10;22.10;99.90
6956;DHT22;50345;51.136;16.886;2022-07-23T05:15:36;22.20;99.90
6956;DHT22;50345;51.136;16.886;2022-07-23T05:18:02;22.30;99.90
6956;DHT22;50345;51.136;16.886;2022-07-23T05:20:27;22.30;99.90
6956;DHT22;50345;51.136;16.886;2022-07-23T05:22:53;22.40;99.90
6956;DHT22;50345;51.136;16.886;2022-07-23T05:25:18;22.40;99.90
6956;DHT22;50345;51.136;16.886;2022-07-23T05:27:44;22.40;99.90
6956;DHT22;50345;51.136;16.886;2022-07-23T05:30:10;22.50;99.90
6956;DHT22;50345;51.136;16.886;2022-07-23T05:35:03;22.60;99.90
6956;DHT22;50345;51.136;16.886;2022-07-23T05:37:29;22.70;99.90
6956;DHT22;50345;51.136;16.886;2022-07-23T05:39:54;22.80;99.90
6956;DHT22;50345;51.136;16.886;2022-07-23T05:42:20;22.80;99.90
6956;DHT22;50345;51.136;16.886;2022-07-23T05:47:12;23.00;99.90
6956;DHT22;50345;51.136;16.886;2022-07-23T05:52:07;23.30;99.90
6956;DHT22;50345;51.136;16.886;2022-07-23T05:54:36;23.40;99.90
6956;DHT22;50345;51.136;16.886;2022-07-23T05:57:02;23.50;99.90
6956;DHT22;50345;51.136;16.886;2022-07-23T05:59:28;23.60;99.90
6956;DHT22;50345;51.136;16.886;2022-07-23T06:01:53;23.70;99.90
6956;DHT22;50345;51.136;16.886;2022-07-23T06:04:19;23.80;99.90
6956;DHT22;50345;51.136;16.886;2022-07-23T06:06:45;23.90;99.90
6956;DHT22;50345;51.136;16.886;2022-07-23T06:09:10;24.00;99.90
6956;DHT22;50345;51.136;16.886;2022-07-23T06:11:39;24.10;99.90
6956;DHT22;50345;51.136;16.886;2022-07-23T06:14:04;24.20;99.90
6956;DHT22;50345;51.136;16.886;2022-07-23T06:16:30;24.30;99.90
6956;DHT22;50345;51.136;16.886;2022-07-23T06:18:56;24.40;99.90
6956;DHT22;50345;51.136;16.886;2022-07-23T06:21:21;24.50;99.90
6956;DHT22;50345;51.136;16.886;2022-07-23T06:28:39;24.80;99.90
6956;DHT22;50345;51.136;16.886;2022-07-23T06:31:04;24.90;99.90
6956;DHT22;50345;51.136;16.886;2022-07-23T06:33:30;25.00;99.90
6956;DHT22;50345;51.136;16.886;2022-07-23T06:35:55;25.10;99.90
6956;DHT22;50345;51.136;16.886;2022-07-23T06:38:21;25.20;99.90
6956;DHT22;50345;51.136;16.886;2022-07-23T06:40:46;25.40;99.90
6956;DHT22;50345;51.136;16.886;2022-07-23T06:43:12;25.50;99.90
6956;DHT22;50345;51.136;16.886;2022-07-23T06:45:38;25.50;99.90
6956;DHT22;50345;51.136;16.886;2022-07-23T06:50:29;25.70;99.90
6956;DHT22;50345;51.136;16.886;2022-07-23T06:52:55;25.80;99.90
6956;DHT22;50345;51.136;16.886;2022-07-23T06:55:20;25.90;99.90
6956;DHT22;50345;51.136;16.886;2022-07-23T06:57:46;26.00;99.90
6956;DHT22;50345;51.136;16.886;2022-07-23T07:00:12;26.00;99.90
6956;DHT22;50345;51.136;16.886;2022-07-23T07:02:38;26.00;99.90
6956;DHT22;50345;51.136;16.886;2022-07-23T07:05:04;26.10;99.90
6956;DHT22;50345;51.136;16.886;2022-07-23T07:07:29;26.10;99.90
6956;DHT22;50345;51.136;16.886;2022-07-23T07:09:55;26.20;99.90
6956;DHT22;50345;51.136;16.886;2022-07-23T07:12:20;26.30;99.90
6956;DHT22;50345;51.136;16.886;2022-07-23T07:14:46;26.30;99.90
6956;DHT22;50345;51.136;16.886;2022-07-23T07:17:12;26.30;99.90
6956;DHT22;50345;51.136;16.886;2022-07-23T07:19:37;26.30;99.90
6956;DHT22;50345;51.136;16.886;2022-07-23T07:22:03;26.30;99.90
6956;DHT22;50345;51.136;16.886;2022-07-23T07:24:28;26.40;99.90
6956;DHT22;50345;51.136;16.886;2022-07-23T07:26:54;26.50;99.90
6956;DHT22;50345;51.136;16.886;2022-07-23T07:29:19;26.60;99.90
6956;DHT22;50345;51.136;16.886;2022-07-23T07:31:45;26.60;99.90
6956;DHT22;50345;51.136;16.886;2022-07-23T07:34:11;26.70;99.40
6956;DHT22;50345;51.136;16.886;2022-07-23T07:36:36;26.70;98.70
6956;DHT22;50345;51.136;16.886;2022-07-23T07:39:03;26.70;98.70
6956;DHT22;50345;51.136;16.886;2022-07-23T07:41:30;26.70;98.50
6956;DHT22;50345;51.136;16.886;2022-07-23T07:43:56;26.70;97.80
6956;DHT22;50345;51.136;16.886;2022-07-23T07:46:21;26.70;97.60
6956;DHT22;50345;51.136;16.886;2022-07-23T07:48:49;26.80;97.70
6956;DHT22;50345;51.136;16.886;2022-07-23T07:51:15;26.80;97.30
6956;DHT22;50345;51.136;16.886;2022-07-23T07:53:41;26.90;96.80
6956;DHT22;50345;51.136;16.886;2022-07-23T07:56:06;27.00;96.70
6956;DHT22;50345;51.136;16.886;2022-07-23T07:58:32;27.10;95.80
6956;DHT22;50345;51.136;16.886;2022-07-23T08:00:57;27.20;95.60
6956;DHT22;50345;51.136;16.886;2022-07-23T08:03:23;27.30;95.20
6956;DHT22;50345;51.136;16.886;2022-07-23T08:05:49;27.50;94.60
6956;DHT22;50345;51.136;16.886;2022-07-23T08:08:14;27.60;94.30
6956;DHT22;50345;51.136;16.886;2022-07-23T08:13:07;27.90;92.20
6956;DHT22;50345;51.136;16.886;2022-07-23T08:15:32;28.00;91.90
6956;DHT22;50345;51.136;16.886;2022-07-23T08:17:59;28.10;90.90
6956;DHT22;50345;51.136;16.886;2022-07-23T08:20:25;28.00;90.70
6956;DHT22;50345;51.136;16.886;2022-07-23T08:23:03;28.10;91.10
6956;DHT22;50345;51.136;16.886;2022-07-23T08:28:51;28.20;89.70
6956;DHT22;50345;51.136;16.886;2022-07-23T08:31:16;28.30;90.10
6956;DHT22;50345;51.136;16.886;2022-07-23T08:33:43;28.30;92.60
6956;DHT22;50345;51.136;16.886;2022-07-23T08:36:08;28.40;92.20
6956;DHT22;50345;51.136;16.886;2022-07-23T08:38:34;28.60;91.40
6956;DHT22;50345;51.136;16.886;2022-07-23T08:41:01;28.70;91.00
6956;DHT22;50345;51.136;16.886;2022-07-23T08:43:30;28.70;93.50
6956;DHT22;50345;51.136;16.886;2022-07-23T08:45:57;28.70;94.80
6956;DHT22;50345;51.136;16.886;2022-07-23T08:48:29;28.90;94.40
6956;DHT22;50345;51.136;16.886;2022-07-23T08:53:24;29.10;79.80
6956;DHT22;50345;51.136;16.886;2022-07-23T08:55:53;29.20;78.70
6956;DHT22;50345;51.136;16.886;2022-07-23T08:58:20;29.10;78.30
6956;DHT22;50345;51.136;16.886;2022-07-23T09:00:47;29.20;78.30
6956;DHT22;50345;51.136;16.886;2022-07-23T09:03:16;29.20;78.30
6956;DHT22;50345;51.136;16.886;2022-07-23T09:05:42;29.30;78.40
6956;DHT22;50345;51.136;16.886;2022-07-23T09:08:13;29.40;76.90
6956;DHT22;50345;51.136;16.886;2022-07-23T09:10:54;29.70;77.50
6956;DHT22;50345;51.136;16.886;2022-07-23T09:19:02;30.30;69.70
6956;DHT22;50345;51.136;16.886;2022-07-23T09:21:30;30.50;70.10
6956;DHT22;50345;51.136;16.886;2022-07-23T09:29:28;30.80;68.10
6956;DHT22;50345;51.136;16.886;2022-07-23T09:31:59;30.80;67.40
6956;DHT22;50345;51.136;16.886;2022-07-23T09:34:32;30.80;68.80
6956;DHT22;50345;51.136;16.886;2022-07-23T09:39:36;30.90;67.20
6956;DHT22;50345;51.136;16.886;2022-07-23T09:42:22;30.80;69.00
6956;DHT22;50345;51.136;16.886;2022-07-23T09:44:50;30.50;70.40
6956;DHT22;50345;51.136;16.886;2022-07-23T09:47:17;30.00;71.60
6956;DHT22;50345;51.136;16.886;2022-07-23T09:50:06;29.50;73.40
6956;DHT22;50345;51.136;16.886;2022-07-23T09:52:35;28.90;77.20
6956;DHT22;50345;51.136;16.886;2022-07-23T09:55:04;28.30;82.90
6956;DHT22;50345;51.136;16.886;2022-07-23T09:57:31;27.80;91.80
6956;DHT22;50345;51.136;16.886;2022-07-23T10:00:00;27.30;99.80
6956;DHT22;50345;51.136;16.886;2022-07-23T10:02:28;26.90;99.90
6956;DHT22;50345;51.136;16.886;2022-07-23T10:04:54;26.40;99.90
6956;DHT22;50345;51.136;16.886;2022-07-23T10:07:22;26.00;99.90
6956;DHT22;50345;51.136;16.886;2022-07-23T10:12:18;25.30;99.90
6956;DHT22;50345;51.136;16.886;2022-07-23T10:15:04;25.10;99.90
6956;DHT22;50345;51.136;16.886;2022-07-23T10:17:32;24.80;99.90
6956;DHT22;50345;51.136;16.886;2022-07-23T10:19:58;24.70;99.90
6956;DHT22;50345;51.136;16.886;2022-07-23T10:22:26;24.60;99.90
6956;DHT22;50345;51.136;16.886;2022-07-23T10:24:59;24.50;99.90
6956;DHT22;50345;51.136;16.886;2022-07-23T10:33:30;24.10;99.90
6956;DHT22;50345;51.136;16.886;2022-07-23T10:36:09;24.00;99.90
6956;DHT22;50345;51.136;16.886;2022-07-23T10:38:48;24.10;99.90
6956;DHT22;50345;51.136;16.886;2022-07-23T10:41:31;24.20;99.90
6956;DHT22;50345;51.136;16.886;2022-07-23T10:44:07;24.10;99.90
6956;DHT22;50345;51.136;16.886;2022-07-23T10:46:33;24.00;99.90
6956;DHT22;50345;51.136;16.886;2022-07-23T10:49:21;23.90;99.90
6956;DHT22;50345;51.136;16.886;2022-07-23T10:52:25;23.90;99.90
6956;DHT22;50345;51.136;16.886;2022-07-23T10:54:53;23.80;99.90
6956;DHT22;50345;51.136;16.886;2022-07-23T10:57:21;23.90;99.90
6956;DHT22;50345;51.136;16.886;2022-07-23T11:02:36;23.30;99.90
6956;DHT22;50345;51.136;16.886;2022-07-23T11:07:32;24.40;99.90
6956;DHT22;50345;51.136;16.886;2022-07-23T11:09:58;24.40;99.90
6956;DHT22;50345;51.136;16.886;2022-07-23T11:17:31;24.40;99.90
6956;DHT22;50345;51.136;16.886;2022-07-23T11:22:39;24.30;99.90
6956;DHT22;50345;51.136;16.886;2022-07-23T11:25:06;24.30;99.90
6956;DHT22;50345;51.136;16.886;2022-07-23T11:27:38;24.30;99.90
6956;DHT22;50345;51.136;16.886;2022-07-23T11:30:05;24.30;99.90
6956;DHT22;50345;51.136;16.886;2022-07-23T11:32:34;24.30;99.90
6956;DHT22;50345;51.136;16.886;2022-07-23T11:35:03;24.30;99.90
6956;DHT22;50345;51.136;16.886;2022-07-23T11:37:44;24.30;99.90
6956;DHT22;50345;51.136;16.886;2022-07-23T11:40:13;24.30;99.90
6956;DHT22;50345;51.136;16.886;2022-07-23T11:42:50;24.30;99.90
6956;DHT22;50345;51.136;16.886;2022-07-23T11:45:16;24.30;99.90
6956;DHT22;50345;51.136;16.886;2022-07-23T11:47:41;24.30;99.90
6956;DHT22;50345;51.136;16.886;2022-07-23T11:50:07;24.50;99.90
6956;DHT22;50345;51.136;16.886;2022-07-23T11:52:34;24.50;99.90
6956;DHT22;50345;51.136;16.886;2022-07-23T11:55:10;24.60;99.90
6956;DHT22;50345;51.136;16.886;2022-07-23T11:57:40;24.70;99.90
6956;DHT22;50345;51.136;16.886;2022-07-23T12:05:08;25.10;99.90
6956;DHT22;50345;51.136;16.886;2022-07-23T12:07:38;25.30;99.90
6956;DHT22;50345;51.136;16.886;2022-07-23T12:10:13;25.60;99.90
6956;DHT22;50345;51.136;16.886;2022-07-23T12:12:46;25.90;99.90
6956;DHT22;50345;51.136;16.886;2022-07-23T12:15:15;26.30;99.90
6956;DHT22;50345;51.136;16.886;2022-07-23T12:17:43;27.10;99.90
6956;DHT22;50345;51.136;16.886;2022-07-23T16:03:14;29.10;87.40
6956;DHT22;50345;51.136;16.886;2022-07-23T16:05:41;29.00;87.80
6956;DHT22;50345;51.136;16.886;2022-07-23T16:08:07;28.80;88.20
6956;DHT22;50345;51.136;16.886;2022-07-23T16:10:33;28.60;89.10
6956;DHT22;50345;51.136;16.886;2022-07-23T16:15:24;28.40;90.20
6956;DHT22;50345;51.136;16.886;2022-07-23T16:17:50;28.30;90.50
6956;DHT22;50345;51.136;16.886;2022-07-23T16:20:16;28.30;90.60
6956;DHT22;50345;51.136;16.886;2022-07-23T16:22:41;28.50;90.00
6956;DHT22;50345;51.136;16.886;2022-07-23T16:34:53;30.70;75.60
6956;DHT22;50345;51.136;16.886;2022-07-23T16:37:19;30.60;76.90
6956;DHT22;50345;51.136;16.886;2022-07-23T16:39:44;30.20;77.50
6956;DHT22;50345;51.136;16.886;2022-07-23T16:42:10;29.80;78.70
6956;DHT22;50345;51.136;16.886;2022-07-23T16:44:36;29.60;79.90
6956;DHT22;50345;51.136;16.886;2022-07-23T16:47:02;29.30;81.20
6956;DHT22;50345;51.136;16.886;2022-07-23T16:49:27;29.20;82.80
6956;DHT22;50345;51.136;16.886;2022-07-23T16:51:53;29.00;83.70
6956;DHT22;50345;51.136;16.886;2022-07-23T16:54:18;28.90;83.50
6956;DHT22;50345;51.136;16.886;2022-07-23T16:56:45;28.90;84.80
6956;DHT22;50345;51.136;16.886;2022-07-23T16:59:11;28.90;85.80
6956;DHT22;50345;51.136;16.886;2022-07-23T17:01:36;28.80;86.10
6956;DHT22;50345;51.136;16.886;2022-07-23T17:04:02;28.70;86.60
6956;DHT22;50345;51.136;16.886;2022-07-23T17:06:28;28.50;87.40
6956;DHT22;50345;51.136;16.886;2022-07-23T17:08:53;28.40;88.10
6956;DHT22;50345;51.136;16.886;2022-07-23T17:11:19;28.30;89.10
6956;DHT22;50345;51.136;16.886;2022-07-23T17:13:44;28.20;90.10
6956;DHT22;50345;51.136;16.886;2022-07-23T17:16:10;28.00;90.50
6956;DHT22;50345;51.136;16.886;2022-07-23T17:18:35;27.90;91.10
6956;DHT22;50345;51.136;16.886;2022-07-23T17:21:01;27.70;91.80
6956;DHT22;50345;51.136;16.886;2022-07-23T17:23:29;27.60;92.60
6956;DHT22;50345;51.136;16.886;2022-07-23T17:25:54;27.30;93.30
6956;DHT22;50345;51.136;16.886;2022-07-23T17:28:20;27.20;94.20
6956;DHT22;50345;51.136;16.886;2022-07-23T17:30:45;27.00;95.00
6956;DHT22;50345;51.136;16.886;2022-07-23T17:33:11;26.80;96.00
6956;DHT22;50345;51.136;16.886;2022-07-23T17:35:37;26.60;97.10
6956;DHT22;50345;51.136;16.886;2022-07-23T17:38:03;26.50;98.10
6956;DHT22;50345;51.136;16.886;2022-07-23T17:40:30;26.40;98.80
6956;DHT22;50345;51.136;16.886;2022-07-23T17:42:55;26.40;99.70
6956;DHT22;50345;51.136;16.886;2022-07-23T17:45:21;26.40;99.90
6956;DHT22;50345;51.136;16.886;2022-07-23T17:47:47;26.30;99.90
6956;DHT22;50345;51.136;16.886;2022-07-23T17:50:13;26.30;99.90
6956;DHT22;50345;51.136;16.886;2022-07-23T17:52:52;26.20;99.90
6956;DHT22;50345;51.136;16.886;2022-07-23T17:55:19;26.20;99.90
6956;DHT22;50345;51.136;16.886;2022-07-23T17:57:45;26.20;99.90
6956;DHT22;50345;51.136;16.886;2022-07-23T18:00:12;26.20;99.90
6956;DHT22;50345;51.136;16.886;2022-07-23T18:02:38;26.20;99.90
6956;DHT22;50345;51.136;16.886;2022-07-23T18:05:04;26.20;99.90
6956;DHT22;50345;51.136;16.886;2022-07-23T18:07:30;26.10;99.90
6956;DHT22;50345;51.136;16.886;2022-07-23T18:09:56;25.90;99.90
6956;DHT22;50345;51.136;16.886;2022-07-23T18:12:21;25.70;99.90
6956;DHT22;50345;51.136;16.886;2022-07-23T18:14:47;25.60;99.90
6956;DHT22;50345;51.136;16.886;2022-07-23T18:17:14;25.50;99.90
6956;DHT22;50345;51.136;16.886;2022-07-23T18:19:40;25.50;99.90
6956;DHT22;50345;51.136;16.886;2022-07-23T18:22:05;25.50;99.90
6956;DHT22;50345;51.136;16.886;2022-07-23T18:24:31;25.40;99.90
6956;DHT22;50345;51.136;16.886;2022-07-23T18:26:57;25.30;99.90
6956;DHT22;50345;51.136;16.886;2022-07-23T18:29:23;25.20;99.90
6956;DHT22;50345;51.136;16.886;2022-07-23T18:31:48;25.10;99.90
6956;DHT22;50345;51.136;16.886;2022-07-23T18:34:14;25.00;99.90
6956;DHT22;50345;51.136;16.886;2022-07-23T18:39:06;24.80;99.90
6956;DHT22;50345;51.136;16.886;2022-07-23T18:41:33;24.80;99.90
6956;DHT22;50345;51.136;16.886;2022-07-23T18:43:59;24.70;99.90
6956;DHT22;50345;51.136;16.886;2022-07-23T18:46:25;24.60;99.90
6956;DHT22;50345;51.136;16.886;2022-07-23T18:51:17;24.30;99.90
6956;DHT22;50345;51.136;16.886;2022-07-23T18:53:43;24.20;99.90
6956;DHT22;50345;51.136;16.886;2022-07-23T18:56:08;24.20;99.90
6956;DHT22;50345;51.136;16.886;2022-07-23T18:58:34;24.10;99.90
6956;DHT22;50345;51.136;16.886;2022-07-23T19:01:00;23.90;99.90
6956;DHT22;50345;51.136;16.886;2022-07-23T19:03:25;23.90;99.90
6956;DHT22;50345;51.136;16.886;2022-07-23T19:05:51;23.80;99.90
6956;DHT22;50345;51.136;16.886;2022-07-23T19:08:17;23.70;99.90
6956;DHT22;50345;51.136;16.886;2022-07-23T19:10:42;23.60;99.90
6956;DHT22;50345;51.136;16.886;2022-07-23T19:15:34;23.40;99.90
6956;DHT22;50345;51.136;16.886;2022-07-23T19:18:00;23.30;99.90
6956;DHT22;50345;51.136;16.886;2022-07-23T19:22:51;23.20;99.90
6956;DHT22;50345;51.136;16.886;2022-07-23T19:25:17;23.10;99.90
6956;DHT22;50345;51.136;16.886;2022-07-23T19:27:43;23.00;99.90
6956;DHT22;50345;51.136;16.886;2022-07-23T19:30:09;22.90;99.90
6956;DHT22;50345;51.136;16.886;2022-07-23T19:32:36;22.90;99.90
6956;DHT22;50345;51.136;16.886;2022-07-23T19:35:03;22.80;99.90
6956;DHT22;50345;51.136;16.886;2022-07-23T19:37:29;22.70;99.90
6956;DHT22;50345;51.136;16.886;2022-07-23T19:39:54;22.70;99.90
6956;DHT22;50345;51.136;16.886;2022-07-23T19:42:20;22.60;99.90
6956;DHT22;50345;51.136;16.886;2022-07-23T19:44:45;22.50;99.90
6956;DHT22;50345;51.136;16.886;2022-07-23T19:47:11;22.40;99.90
6956;DHT22;50345;51.136;16.886;2022-07-23T19:49:37;22.40;99.90
6956;DHT22;50345;51.136;16.886;2022-07-23T19:52:02;22.30;99.90
6956;DHT22;50345;51.136;16.886;2022-07-23T19:54:29;22.30;99.90
6956;DHT22;50345;51.136;16.886;2022-07-23T19:56:54;22.20;99.90
6956;DHT22;50345;51.136;16.886;2022-07-23T19:59:20;22.10;99.90
6956;DHT22;50345;51.136;16.886;2022-07-23T20:01:46;22.10;99.90
6956;DHT22;50345;51.136;16.886;2022-07-23T20:04:12;22.00;99.90
6956;DHT22;50345;51.136;16.886;2022-07-23T20:06:38;22.00;99.90
6956;DHT22;50345;51.136;16.886;2022-07-23T20:09:05;21.90;99.90
6956;DHT22;50345;51.136;16.886;2022-07-23T20:11:31;21.90;99.90
6956;DHT22;50345;51.136;16.886;2022-07-23T20:13:58;21.90;99.90
6956;DHT22;50345;51.136;16.886;2022-07-23T20:16:23;21.80;99.90
6956;DHT22;50345;51.136;16.886;2022-07-23T20:18:49;21.80;99.90
6956;DHT22;50345;51.136;16.886;2022-07-23T20:21:15;21.70;99.90
6956;DHT22;50345;51.136;16.886;2022-07-23T20:23:40;21.70;99.90
6956;DHT22;50345;51.136;16.886;2022-07-23T20:26:06;21.70;99.90
6956;DHT22;50345;51.136;16.886;2022-07-23T20:28:32;21.60;99.90
6956;DHT22;50345;51.136;16.886;2022-07-23T20:30:57;21.60;99.90
6956;DHT22;50345;51.136;16.886;2022-07-23T20:33:24;21.60;99.90
6956;DHT22;50345;51.136;16.886;2022-07-23T20:35:50;21.50;99.90
6956;DHT22;50345;51.136;16.886;2022-07-23T20:38:16;21.50;99.90
6956;DHT22;50345;51.136;16.886;2022-07-23T20:40:42;21.50;99.90
6956;DHT22;50345;51.136;16.886;2022-07-23T20:43:08;21.40;99.90
6956;DHT22;50345;51.136;16.886;2022-07-23T20:45:35;21.40;99.90
6956;DHT22;50345;51.136;16.886;2022-07-23T20:48:00;21.40;99.90